createdAt,value
2022-09-05T00:00:05.884Z,79.72
2022-09-05T00:01:05.838Z,80.10
2022-09-05T00:02:05.794Z,79.81
2022-09-05T00:03:05.950Z,80.20
2022-09-05T00:04:25.231Z,79.52
2022-09-05T00:05:05.642Z,79.52
2022-09-05T00:06:05.592Z,79.52
2022-09-05T00:07:05.546Z,80.20
2022-09-05T00:08:05.494Z,80.00
2022-09-05T00:09:05.446Z,80.00
2022-09-05T00:10:05.780Z,79.81
2022-09-05T00:11:41.964Z,80.00
2022-09-05T00:12:05.301Z,79.81
2022-09-05T00:13:07.557Z,80.00
2022-09-05T00:14:05.205Z,79.81
2022-09-05T00:15:16.310Z,80.00
2022-09-05T00:16:05.164Z,80.00
2022-09-05T00:17:05.058Z,79.81
2022-09-05T00:21:27.102Z,79.81
2022-09-05T00:22:09.524Z,79.52
2022-09-05T00:24:20.511Z,79.91
2022-09-05T00:24:21.706Z,79.91
2022-09-05T00:24:25.378Z,79.43
2022-09-05T00:24:27.483Z,79.52
2022-09-05T00:24:28.566Z,79.52
2022-09-05T00:25:30.373Z,79.62
2022-09-05T00:26:04.616Z,79.39
2022-09-05T00:27:04.568Z,79.91
2022-09-05T00:28:25.983Z,79.77
2022-09-05T00:29:04.471Z,79.49
2022-09-05T00:31:07.911Z,79.91
2022-09-05T00:31:51.850Z,79.77
2022-09-05T00:32:04.389Z,79.58
2022-09-05T00:33:17.477Z,79.68
2022-09-05T00:34:04.230Z,79.62
2022-09-05T00:35:04.180Z,79.81
2022-09-05T00:36:04.129Z,79.77
2022-09-05T00:37:04.081Z,79.81
2022-09-05T00:38:04.032Z,79.62
2022-09-05T00:39:03.988Z,79.58
2022-09-05T00:40:17.346Z,79.87
2022-09-05T00:41:03.885Z,79.72
2022-09-05T00:42:03.836Z,79.49
2022-09-05T00:43:03.789Z,79.49
2022-09-05T00:44:03.740Z,79.39
2022-09-05T00:45:03.695Z,79.29
2022-09-05T00:46:03.686Z,79.29
2022-09-05T00:47:03.593Z,79.29
2022-09-05T00:48:03.546Z,79.29
2022-09-05T00:49:03.495Z,79.19
2022-09-05T00:50:03.447Z,79.49
2022-09-05T00:51:03.413Z,79.19
2022-09-05T00:52:03.347Z,79.39
2022-09-05T00:53:07.569Z,79.19
2022-09-05T00:54:03.279Z,79.19
2022-09-05T00:55:03.202Z,79.19
2022-09-05T00:56:03.151Z,79.49
2022-09-05T00:57:03.120Z,79.39
2022-09-05T00:58:03.073Z,79.39
2022-09-05T00:59:03.009Z,79.39
2022-09-05T01:00:02.955Z,79.19
2022-09-05T01:01:02.911Z,79.39
2022-09-05T01:02:03.985Z,79.39
2022-09-05T01:03:02.964Z,79.58
2022-09-05T01:04:05.815Z,79.39
2022-09-05T01:05:02.717Z,79.39
2022-09-05T01:06:02.665Z,79.39
2022-09-05T01:07:02.624Z,79.58
2022-09-05T01:08:02.566Z,79.29
2022-09-05T01:09:07.517Z,79.49
2022-09-05T01:10:02.467Z,79.58
2022-09-05T01:11:02.419Z,79.39
2022-09-05T01:12:02.370Z,79.49
2022-09-05T01:13:02.321Z,79.58
2022-09-05T01:14:02.272Z,78.91
2022-09-05T01:15:02.235Z,79.00
2022-09-05T01:16:02.275Z,79.10
2022-09-05T01:17:02.125Z,79.10
2022-09-05T01:18:02.079Z,79.00
2022-09-05T01:19:02.035Z,78.81
2022-09-05T01:20:04.850Z,79.10
2022-09-05T01:21:01.930Z,78.52
2022-09-05T01:22:01.880Z,79.10
2022-09-05T01:23:01.835Z,78.81
2022-09-05T01:24:01.783Z,78.52
2022-09-05T01:25:01.740Z,78.52
2022-09-05T01:26:01.686Z,79.00
2022-09-05T01:27:01.658Z,78.61
2022-09-05T01:29:13.812Z,78.52
2022-09-05T01:29:15.152Z,78.71
2022-09-05T01:30:01.490Z,78.71
2022-09-05T01:31:01.463Z,78.71
2022-09-05T01:32:01.391Z,79.29
2022-09-05T01:33:05.928Z,79.39
2022-09-05T01:34:01.293Z,78.71
2022-09-05T01:35:01.250Z,78.61
2022-09-05T01:36:04.029Z,79.00
2022-09-05T01:37:01.149Z,79.00
2022-09-05T01:38:01.102Z,78.52
2022-09-05T01:40:12.373Z,79.00
2022-09-05T01:40:14.009Z,78.91
2022-09-05T01:41:17.654Z,79.19
2022-09-05T01:42:00.928Z,78.91
2022-09-05T01:43:00.853Z,78.81
2022-09-05T01:44:00.804Z,79.29
2022-09-05T01:45:00.783Z,79.29
2022-09-05T01:46:00.769Z,79.10
2022-09-05T01:47:00.657Z,78.91
2022-09-05T01:48:00.608Z,78.91
2022-09-05T01:49:00.560Z,78.81
2022-09-05T01:50:00.932Z,78.61
2022-09-05T01:51:01.391Z,78.71
2022-09-05T01:52:00.411Z,78.71
2022-09-05T01:53:04.149Z,78.61
2022-09-05T01:54:00.317Z,78.91
2022-09-05T01:55:00.277Z,79.00
2022-09-05T01:56:05.120Z,78.42
2022-09-05T01:57:00.169Z,78.42
2022-09-05T01:58:00.118Z,78.13
2022-09-05T01:59:00.070Z,78.33
2022-09-05T02:00:00.022Z,78.13
2022-09-05T02:01:25.356Z,78.33
2022-09-05T02:01:59.958Z,78.61
2022-09-05T02:02:59.925Z,78.42
2022-09-05T02:03:59.872Z,78.42
2022-09-05T02:04:59.776Z,78.33
2022-09-05T02:05:59.727Z,78.42
2022-09-05T02:07:22.510Z,78.42
2022-09-05T02:07:59.630Z,78.23
2022-09-05T02:08:59.581Z,78.52
2022-09-05T02:10:05.057Z,78.33
2022-09-05T02:10:59.482Z,78.42
2022-09-05T02:11:59.434Z,78.33
2022-09-05T02:13:02.983Z,78.52
2022-09-05T02:13:59.334Z,78.33
2022-09-05T02:14:59.285Z,78.81
2022-09-05T02:16:00.351Z,78.67
2022-09-05T02:16:59.190Z,78.13
2022-09-05T02:17:59.138Z,78.13
2022-09-05T02:18:59.090Z,78.13
2022-09-05T02:19:59.039Z,77.84
2022-09-05T02:20:58.991Z,78.33
2022-09-05T02:21:58.947Z,78.38
2022-09-05T02:22:58.902Z,78.23
2022-09-05T02:23:58.843Z,78.19
2022-09-05T02:25:25.602Z,78.29
2022-09-05T02:26:01.107Z,78.19
2022-09-05T02:26:58.700Z,78.29
2022-09-05T02:28:05.885Z,78.38
2022-09-05T02:28:58.602Z,78.19
2022-09-05T02:29:58.550Z,78.00
2022-09-05T02:31:11.602Z,78.19
2022-09-05T02:31:58.505Z,78.00
2022-09-05T02:32:58.412Z,77.81
2022-09-05T02:34:01.861Z,77.81
2022-09-05T02:34:58.304Z,77.81
2022-09-05T02:35:58.253Z,77.81
2022-09-05T02:36:58.209Z,77.81
2022-09-05T02:42:17.209Z,78.09
2022-09-05T02:43:12.858Z,77.90
2022-09-05T02:45:03.003Z,78.13
2022-09-05T02:45:07.589Z,77.71
2022-09-05T02:45:09.702Z,77.90
2022-09-05T02:45:12.049Z,78.29
2022-09-05T02:45:18.725Z,78.00
2022-09-05T02:45:19.794Z,77.90
2022-09-05T02:45:57.835Z,78.19
2022-09-05T02:46:57.800Z,78.19
2022-09-05T02:47:57.664Z,78.09
2022-09-05T02:48:57.619Z,77.90
2022-09-05T02:52:54.910Z,78.00
2022-09-05T02:55:03.377Z,77.90
2022-09-05T02:57:29.378Z,78.09
2022-09-05T02:57:35.085Z,78.00
2022-09-05T02:57:40.796Z,78.09
2022-09-05T02:57:41.152Z,77.90
2022-09-05T02:57:41.585Z,77.90
2022-09-05T02:57:41.754Z,77.90
2022-09-05T02:58:08.044Z,78.00
2022-09-05T02:59:09.752Z,77.90
2022-09-05T02:59:57.077Z,77.61
2022-09-05T03:00:57.065Z,77.61
2022-09-05T03:01:56.981Z,77.61
2022-09-05T03:02:56.961Z,77.51
2022-09-05T03:03:56.880Z,77.61
2022-09-05T03:05:04.287Z,77.13
2022-09-05T03:05:56.783Z,77.13
2022-09-05T03:06:56.733Z,77.33
2022-09-05T03:07:56.683Z,77.33
2022-09-05T03:08:57.067Z,77.13
2022-09-05T03:09:56.586Z,77.33
2022-09-05T03:10:56.535Z,77.61
2022-09-05T03:11:56.487Z,77.51
2022-09-05T03:12:56.439Z,77.61
2022-09-05T03:13:56.392Z,77.42
2022-09-05T03:14:56.340Z,77.33
2022-09-05T03:15:56.290Z,77.61
2022-09-05T03:16:56.304Z,77.33
2022-09-05T03:17:56.194Z,77.42
2022-09-05T03:18:56.143Z,77.33
2022-09-05T03:19:56.093Z,77.51
2022-09-05T03:20:56.042Z,77.23
2022-09-05T03:21:55.996Z,77.42
2022-09-05T03:22:55.944Z,77.13
2022-09-05T03:23:55.900Z,77.13
2022-09-05T03:24:56.399Z,77.23
2022-09-05T03:25:55.800Z,77.13
2022-09-05T03:26:55.748Z,77.42
2022-09-05T03:27:55.699Z,77.33
2022-09-05T03:28:55.653Z,77.42
2022-09-05T03:29:58.677Z,77.42
2022-09-05T03:30:55.635Z,77.13
2022-09-05T03:31:55.503Z,77.61
2022-09-05T03:32:55.454Z,77.51
2022-09-05T03:33:55.408Z,77.42
2022-09-05T03:34:55.355Z,77.51
2022-09-05T03:35:55.307Z,77.33
2022-09-05T03:36:55.256Z,77.42
2022-09-05T03:37:55.208Z,77.42
2022-09-05T03:38:55.156Z,77.51
2022-09-05T03:39:55.154Z,77.42
2022-09-05T03:40:55.059Z,77.51
2022-09-05T03:41:55.011Z,77.51
2022-09-05T03:42:54.960Z,77.23
2022-09-05T03:43:54.919Z,77.23
2022-09-05T03:44:54.862Z,77.13
2022-09-05T03:45:54.862Z,77.42
2022-09-05T03:46:54.764Z,77.33
2022-09-05T03:48:02.198Z,77.42
2022-09-05T03:48:54.717Z,77.51
2022-09-05T03:52:27.466Z,77.61
2022-09-05T03:57:10.323Z,77.61
2022-09-05T03:57:10.994Z,76.93
2022-09-05T03:57:12.059Z,77.51
2022-09-05T03:57:16.515Z,76.65
2022-09-05T03:57:18.759Z,76.84
2022-09-05T03:57:21.026Z,77.51
2022-09-05T03:57:27.457Z,77.23
2022-09-05T03:57:54.223Z,76.65
2022-09-05T03:58:56.865Z,76.65
2022-09-05T03:59:54.124Z,76.55
2022-09-05T04:00:54.094Z,76.65
2022-09-05T04:04:39.264Z,76.65
2022-09-05T04:08:06.697Z,76.65
2022-09-05T04:08:09.055Z,76.65
2022-09-05T04:08:10.190Z,76.65
2022-09-05T04:08:14.406Z,76.55
2022-09-05T04:08:14.411Z,76.65
2022-09-05T04:08:15.464Z,76.84
2022-09-05T04:08:54.229Z,76.84
2022-09-05T04:09:53.741Z,76.84
2022-09-05T04:10:53.762Z,76.84
2022-09-05T04:11:53.534Z,76.84
2022-09-05T04:12:53.483Z,76.84
2022-09-05T04:13:53.434Z,76.84
2022-09-05T04:14:53.383Z,77.03
2022-09-05T04:15:54.563Z,76.75
2022-09-05T04:16:53.305Z,76.93
2022-09-05T04:17:53.238Z,76.90
2022-09-05T04:18:53.185Z,76.93
2022-09-05T04:19:53.138Z,76.75
2022-09-05T04:20:53.088Z,76.84
2022-09-05T04:21:53.040Z,76.80
2022-09-05T04:22:52.991Z,76.90
2022-09-05T04:23:52.940Z,77.03
2022-09-05T04:24:52.890Z,76.71
2022-09-05T04:26:02.935Z,76.75
2022-09-05T04:26:52.790Z,76.71
2022-09-05T04:27:52.743Z,76.80
2022-09-05T04:28:53.220Z,76.90
2022-09-05T04:29:52.645Z,76.80
2022-09-05T04:30:52.594Z,77.00
2022-09-05T04:32:18.153Z,76.90
2022-09-05T04:32:54.764Z,76.80
2022-09-05T04:33:52.450Z,76.90
2022-09-05T04:34:52.396Z,77.00
2022-09-05T04:35:52.350Z,76.90
2022-09-05T04:36:52.306Z,76.61
2022-09-05T04:37:52.253Z,76.71
2022-09-05T04:38:52.205Z,76.71
2022-09-05T04:39:52.165Z,77.00
2022-09-05T04:40:52.101Z,76.80
2022-09-05T04:41:52.053Z,76.90
2022-09-05T04:42:52.003Z,77.00
2022-09-05T04:43:51.953Z,77.00
2022-09-05T04:44:55.935Z,76.90
2022-09-05T04:45:51.886Z,77.00
2022-09-05T04:46:52.097Z,76.80
2022-09-05T04:47:51.755Z,77.00
2022-09-05T04:48:51.705Z,76.61
2022-09-05T04:49:51.658Z,76.90
2022-09-05T04:50:51.606Z,77.09
2022-09-05T04:52:00.405Z,77.09
2022-09-05T04:52:51.508Z,77.00
2022-09-05T04:53:51.459Z,76.90
2022-09-05T04:54:51.411Z,76.80
2022-09-05T04:55:51.360Z,76.32
2022-09-05T04:56:51.312Z,77.00
2022-09-05T04:57:51.264Z,76.23
2022-09-05T05:00:38.188Z,76.61
2022-09-05T05:06:00.143Z,76.23
2022-09-05T05:06:05.818Z,76.23
2022-09-05T05:06:11.026Z,76.61
2022-09-05T05:06:11.744Z,76.51
2022-09-05T05:06:11.904Z,76.51
2022-09-05T05:06:12.917Z,76.42
2022-09-05T05:06:22.511Z,76.42
2022-09-05T05:06:50.986Z,76.61
2022-09-05T05:07:50.911Z,76.61
2022-09-05T05:08:50.844Z,76.42
2022-09-05T05:10:02.039Z,76.61
2022-09-05T05:14:47.157Z,76.61
2022-09-05T05:17:54.817Z,76.61
2022-09-05T05:17:59.129Z,76.61
2022-09-05T05:18:01.973Z,76.51
2022-09-05T05:18:10.901Z,76.42
2022-09-05T05:18:10.901Z,76.51
2022-09-05T05:18:11.986Z,76.61
2022-09-05T05:18:13.105Z,76.42
2022-09-05T05:20:39.449Z,76.42
2022-09-05T05:20:50.192Z,76.61
2022-09-05T05:21:50.078Z,76.61
2022-09-05T05:22:50.737Z,76.51
2022-09-05T05:23:49.976Z,76.71
2022-09-05T05:24:49.925Z,76.51
2022-09-05T05:25:49.877Z,76.51
2022-09-05T05:26:56.658Z,76.71
2022-09-05T05:27:49.777Z,76.32
2022-09-05T05:28:49.728Z,76.71
2022-09-05T05:29:49.681Z,76.71
2022-09-05T05:30:50.624Z,76.90
2022-09-05T05:31:49.631Z,76.90
2022-09-05T05:32:49.529Z,76.90
2022-09-05T05:33:49.481Z,77.00
2022-09-05T05:34:49.430Z,76.71
2022-09-05T05:35:49.381Z,76.71
2022-09-05T05:36:49.333Z,76.90
2022-09-05T05:37:49.283Z,76.90
2022-09-05T05:38:49.230Z,76.90
2022-09-05T05:39:49.227Z,77.00
2022-09-05T05:40:51.186Z,76.80
2022-09-05T05:41:49.084Z,76.51
2022-09-05T05:42:49.034Z,76.61
2022-09-05T05:43:48.984Z,76.61
2022-09-05T05:44:48.936Z,76.80
2022-09-05T05:45:48.905Z,76.71
2022-09-05T05:46:48.834Z,76.61
2022-09-05T05:47:48.786Z,77.09
2022-09-05T05:48:51.780Z,76.90
2022-09-05T05:49:48.698Z,77.00
2022-09-05T05:50:48.636Z,77.19
2022-09-05T05:52:02.262Z,77.58
2022-09-05T05:52:48.537Z,77.38
2022-09-05T05:53:52.202Z,77.38
2022-09-05T05:54:48.438Z,77.09
2022-09-05T05:55:51.886Z,77.38
2022-09-05T05:56:48.339Z,77.19
2022-09-05T05:57:48.293Z,77.48
2022-09-05T05:58:48.241Z,77.38
2022-09-05T05:59:57.599Z,77.38
2022-09-05T06:00:51.338Z,77.58
2022-09-05T06:01:48.178Z,77.58
2022-09-05T06:02:59.449Z,77.28
2022-09-05T06:03:48.151Z,77.28
2022-09-05T06:04:47.942Z,77.67
2022-09-05T06:05:47.894Z,77.67
2022-09-05T06:06:47.847Z,77.76
2022-09-05T06:10:14.428Z,77.86
2022-09-05T06:11:12.593Z,77.86
2022-09-05T06:14:49.044Z,77.86
2022-09-05T06:14:55.981Z,78.06
2022-09-05T06:15:01.463Z,78.06
2022-09-05T06:15:02.368Z,77.96
2022-09-05T06:15:04.946Z,78.25
2022-09-05T06:15:05.373Z,77.96
2022-09-05T06:15:47.398Z,78.34
2022-09-05T06:16:47.391Z,78.44
2022-09-05T06:17:47.413Z,78.15
2022-09-05T06:18:47.248Z,78.25
2022-09-05T06:21:24.029Z,78.25
2022-09-05T06:22:08.928Z,78.15
2022-09-05T06:22:10.090Z,78.15
2022-09-05T06:22:47.050Z,78.06
2022-09-05T06:23:47.056Z,77.86
2022-09-05T06:24:46.952Z,78.54
2022-09-05T06:25:46.903Z,78.34
2022-09-05T06:26:46.858Z,78.25
2022-09-05T06:28:01.701Z,78.34
2022-09-05T06:28:46.752Z,78.25
2022-09-05T06:29:47.324Z,78.25
2022-09-05T06:30:46.658Z,78.25
2022-09-05T06:31:46.625Z,78.25
2022-09-05T06:32:52.000Z,78.34
2022-09-05T06:33:46.505Z,78.44
2022-09-05T06:34:46.453Z,78.34
2022-09-05T06:35:46.407Z,78.44
2022-09-05T06:36:46.355Z,78.54
2022-09-05T06:37:46.306Z,78.25
2022-09-05T06:38:46.255Z,78.25
2022-09-05T06:39:46.555Z,78.34
2022-09-05T06:40:46.159Z,78.83
2022-09-05T06:41:46.107Z,78.44
2022-09-05T06:42:46.055Z,79.11
2022-09-05T06:43:46.032Z,78.83
2022-09-05T06:44:45.958Z,79.02
2022-09-05T06:45:46.603Z,79.11
2022-09-05T06:47:22.503Z,78.44
2022-09-05T06:47:45.843Z,78.92
2022-09-05T06:49:30.954Z,78.54
2022-09-05T06:49:46.258Z,78.54
2022-09-05T06:51:08.523Z,79.02
2022-09-05T06:51:46.298Z,78.63
2022-09-05T06:52:45.562Z,78.73
2022-09-05T06:53:45.514Z,78.92
2022-09-05T06:54:47.113Z,78.92
2022-09-05T06:55:45.420Z,79.02
2022-09-05T06:56:45.362Z,78.92
2022-09-05T06:57:45.315Z,78.92
2022-09-05T06:58:45.262Z,79.41
2022-09-05T06:59:45.215Z,79.50
2022-09-05T07:00:45.171Z,79.31
2022-09-05T07:02:00.320Z,79.31
2022-09-05T07:02:59.268Z,79.11
2022-09-05T07:03:45.017Z,79.31
2022-09-05T07:05:37.369Z,79.11
2022-09-05T07:05:45.748Z,78.92
2022-09-05T07:07:01.617Z,79.31
2022-09-05T07:07:46.125Z,79.31
2022-09-05T07:08:44.766Z,79.11
2022-09-05T07:09:44.720Z,79.11
2022-09-05T07:10:44.668Z,79.60
2022-09-05T07:11:44.622Z,79.50
2022-09-05T07:12:44.572Z,79.60
2022-09-05T07:13:45.000Z,79.50
2022-09-05T07:14:44.477Z,79.50
2022-09-05T07:15:44.439Z,79.41
2022-09-05T07:16:44.412Z,79.79
2022-09-05T07:18:06.477Z,79.69
2022-09-05T07:18:44.274Z,79.69
2022-09-05T07:19:44.220Z,79.41
2022-09-05T07:21:17.308Z,79.69
2022-09-05T07:21:44.347Z,79.69
2022-09-05T07:22:48.145Z,79.69
2022-09-05T07:24:05.617Z,79.50
2022-09-05T07:24:54.462Z,79.79
2022-09-05T07:25:43.928Z,79.60
2022-09-05T07:26:54.467Z,79.79
2022-09-05T07:28:26.369Z,79.79
2022-09-05T07:28:43.777Z,79.89
2022-09-05T07:29:53.304Z,79.60
2022-09-05T07:30:43.695Z,79.79
2022-09-05T07:31:43.664Z,79.60
2022-09-05T07:32:43.579Z,79.69
2022-09-05T07:33:43.528Z,79.79
2022-09-05T07:34:43.480Z,79.41
2022-09-05T07:35:43.427Z,80.08
2022-09-05T07:36:43.379Z,79.69
2022-09-05T07:37:43.335Z,79.98
2022-09-05T07:38:55.268Z,80.08
2022-09-05T07:39:43.261Z,79.98
2022-09-05T07:40:43.202Z,79.89
2022-09-05T07:41:43.129Z,79.98
2022-09-05T07:42:43.081Z,80.08
2022-09-05T07:43:43.031Z,80.18
2022-09-05T07:44:42.982Z,79.89
2022-09-05T07:45:48.086Z,79.69
2022-09-05T07:46:42.884Z,79.69
2022-09-05T07:47:42.832Z,79.69
2022-09-05T07:48:42.784Z,79.60
2022-09-05T07:50:05.124Z,79.60
2022-09-05T07:56:48.065Z,79.60
2022-09-05T07:56:58.765Z,79.50
2022-09-05T07:56:59.015Z,79.79
2022-09-05T07:57:01.149Z,79.60
2022-09-05T07:57:01.851Z,79.50
2022-09-05T07:57:10.687Z,79.50
2022-09-05T07:57:12.848Z,80.08
2022-09-05T07:57:51.250Z,79.50
2022-09-05T07:58:42.296Z,79.60
2022-09-05T07:59:42.237Z,80.18
2022-09-05T08:00:42.260Z,79.89
2022-09-05T08:01:42.138Z,79.98
2022-09-05T08:02:45.891Z,80.46
2022-09-05T08:03:42.042Z,79.89
2022-09-05T08:04:42.142Z,79.98
2022-09-05T08:05:41.961Z,80.08
2022-09-05T08:07:46.468Z,80.27
2022-09-05T08:07:49.960Z,80.46
2022-09-05T08:08:41.793Z,80.18
2022-09-05T08:10:06.092Z,80.08
2022-09-05T08:11:24.277Z,80.27
2022-09-05T08:11:41.644Z,79.89
2022-09-05T08:13:22.308Z,80.27
2022-09-05T08:13:41.543Z,79.50
2022-09-05T08:14:45.320Z,79.79
2022-09-05T08:16:04.321Z,79.69
2022-09-05T08:16:41.428Z,80.08
2022-09-05T08:17:41.346Z,80.08
2022-09-05T08:18:42.883Z,79.69
2022-09-05T08:19:41.248Z,80.27
2022-09-05T08:20:41.214Z,80.18
2022-09-05T08:21:41.147Z,80.66
2022-09-05T08:22:41.118Z,80.56
2022-09-05T08:23:41.050Z,80.27
2022-09-05T08:24:41.001Z,80.56
2022-09-05T08:25:45.797Z,80.56
2022-09-05T08:26:44.151Z,80.37
2022-09-05T08:27:40.851Z,80.56
2022-09-05T08:28:40.804Z,80.66
2022-09-05T08:29:40.766Z,80.18
2022-09-05T08:30:40.711Z,80.46
2022-09-05T08:31:42.239Z,80.46
2022-09-05T08:32:40.611Z,80.85
2022-09-05T08:33:40.554Z,80.94
2022-09-05T08:34:44.566Z,81.47
2022-09-05T08:35:40.462Z,81.47
2022-09-05T08:36:40.405Z,80.79
2022-09-05T08:37:40.377Z,81.18
2022-09-05T08:38:40.881Z,80.99
2022-09-05T08:39:40.287Z,81.27
2022-09-05T08:40:40.208Z,81.57
2022-09-05T08:41:51.108Z,81.18
2022-09-05T08:42:40.108Z,81.66
2022-09-05T08:46:02.032Z,80.99
2022-09-05T08:46:40.901Z,81.18
2022-09-05T08:46:42.970Z,81.18
2022-09-05T08:46:49.360Z,81.37
2022-09-05T08:47:45.754Z,81.66
2022-09-05T08:48:39.811Z,81.66
2022-09-05T08:49:44.020Z,82.72
2022-09-05T08:50:39.711Z,83.11
2022-09-05T08:51:41.289Z,84.36
2022-09-05T08:52:39.614Z,85.13
2022-09-05T08:53:46.580Z,85.42
2022-09-05T08:54:39.513Z,85.71
2022-09-05T08:55:39.466Z,85.91
2022-09-05T08:56:39.420Z,86.39
2022-09-05T08:57:39.480Z,87.35
2022-09-05T08:58:39.316Z,87.06
2022-09-05T08:59:47.785Z,87.06
2022-09-05T09:00:39.277Z,86.77
2022-09-05T09:02:42.917Z,86.48
2022-09-05T09:02:47.702Z,86.29
2022-09-05T09:03:39.137Z,86.48
2022-09-05T09:05:01.694Z,86.68
2022-09-05T09:05:51.916Z,86.68
2022-09-05T09:06:38.920Z,86.00
2022-09-05T09:07:51.217Z,86.33
2022-09-05T09:08:38.820Z,85.81
2022-09-05T09:09:38.780Z,86.19
2022-09-05T09:10:38.723Z,85.85
2022-09-05T09:11:38.683Z,85.37
2022-09-05T09:12:38.624Z,85.37
2022-09-05T09:13:38.573Z,85.56
2022-09-05T09:14:38.529Z,85.75
2022-09-05T09:15:38.476Z,85.37
2022-09-05T09:16:38.436Z,85.17
2022-09-05T09:17:38.376Z,85.37
2022-09-05T09:18:38.332Z,84.98
2022-09-05T09:19:38.276Z,84.79
2022-09-05T09:20:38.260Z,84.69
2022-09-05T09:21:38.179Z,84.98
2022-09-05T09:22:38.131Z,84.98
2022-09-05T09:23:38.082Z,85.08
2022-09-05T09:24:38.036Z,84.79
2022-09-05T09:25:38.004Z,84.69
2022-09-05T09:26:37.934Z,84.59
2022-09-05T09:28:13.631Z,84.79
2022-09-05T09:28:49.673Z,84.69
2022-09-05T09:29:37.784Z,85.17
2022-09-05T09:30:37.740Z,85.27
2022-09-05T09:31:37.736Z,84.98
2022-09-05T09:32:37.638Z,84.98
2022-09-05T09:33:37.590Z,85.02
2022-09-05T09:34:39.556Z,84.74
2022-09-05T09:35:37.488Z,84.35
2022-09-05T09:36:37.442Z,84.35
2022-09-05T09:37:51.161Z,84.06
2022-09-05T09:38:37.342Z,84.06
2022-09-05T09:39:39.797Z,84.16
2022-09-05T09:40:37.244Z,84.41
2022-09-05T09:41:37.195Z,84.25
2022-09-05T09:42:37.148Z,84.25
2022-09-05T09:43:37.095Z,84.25
2022-09-05T09:44:37.048Z,84.25
2022-09-05T09:45:36.996Z,84.06
2022-09-05T09:46:39.349Z,83.58
2022-09-05T09:47:36.902Z,83.48
2022-09-05T09:48:36.850Z,83.58
2022-09-05T09:49:36.801Z,83.67
2022-09-05T09:50:36.752Z,82.90
2022-09-05T09:51:36.706Z,82.71
2022-09-05T09:52:36.656Z,83.00
2022-09-05T09:53:37.031Z,82.61
2022-09-05T09:54:36.556Z,83.09
2022-09-05T09:55:36.507Z,82.71
2022-09-05T09:56:36.458Z,83.00
2022-09-05T09:57:36.409Z,82.71
2022-09-05T09:58:36.360Z,82.32
2022-09-05T09:59:36.311Z,82.90
2022-09-05T10:00:36.297Z,82.32
2022-09-05T10:01:37.366Z,82.81
2022-09-05T10:06:33.839Z,82.81
2022-09-05T10:08:22.946Z,82.71
2022-09-05T10:10:36.482Z,82.56
2022-09-05T10:10:40.475Z,82.07
2022-09-05T10:10:49.909Z,81.49
2022-09-05T10:10:53.065Z,81.49
2022-09-05T10:10:59.753Z,81.59
2022-09-05T10:11:00.624Z,81.49
2022-09-05T10:11:22.685Z,81.49
2022-09-05T10:11:53.768Z,81.88
2022-09-05T10:12:35.677Z,81.78
2022-09-05T10:13:35.625Z,81.49
2022-09-05T10:14:49.499Z,82.56
2022-09-05T10:15:35.524Z,82.07
2022-09-05T10:16:35.479Z,81.88
2022-09-05T10:17:35.432Z,81.49
2022-09-05T10:18:35.380Z,81.59
2022-09-05T10:20:35.283Z,81.88
2022-09-05T10:21:35.232Z,81.88
2022-09-05T10:22:37.150Z,81.78
2022-09-05T10:23:35.142Z,81.49
2022-09-05T10:24:35.122Z,81.49
2022-09-05T10:25:35.047Z,81.49
2022-09-05T10:26:35.305Z,81.49
2022-09-05T10:27:34.940Z,82.07
2022-09-05T10:28:34.894Z,81.59
2022-09-05T10:29:38.557Z,81.01
2022-09-05T10:32:13.686Z,81.20
2022-09-05T10:33:55.496Z,80.91
2022-09-05T10:35:10.611Z,80.14
2022-09-05T10:35:14.386Z,80.82
2022-09-05T10:35:15.174Z,79.95
2022-09-05T10:35:35.053Z,80.24
2022-09-05T10:36:34.565Z,80.24
2022-09-05T10:37:34.452Z,80.14
2022-09-05T10:38:34.460Z,80.24
2022-09-05T10:39:34.411Z,79.66
2022-09-05T10:40:36.270Z,79.89
2022-09-05T10:41:34.257Z,79.99
2022-09-05T10:42:34.208Z,80.24
2022-09-05T10:43:34.159Z,79.22
2022-09-05T10:44:34.115Z,79.60
2022-09-05T10:45:38.189Z,79.85
2022-09-05T10:46:50.055Z,79.37
2022-09-05T10:47:33.963Z,79.70
2022-09-05T10:48:33.918Z,79.41
2022-09-05T10:49:33.874Z,79.41
2022-09-05T10:50:33.830Z,79.12
2022-09-05T10:51:37.616Z,78.73
2022-09-05T10:52:33.722Z,79.12
2022-09-05T10:53:39.490Z,78.83
2022-09-05T10:54:33.624Z,79.02
2022-09-05T10:55:33.577Z,78.54
2022-09-05T10:56:33.527Z,78.54
2022-09-05T10:57:33.482Z,78.83
2022-09-05T11:00:35.517Z,78.34
2022-09-05T11:02:24.628Z,78.25
2022-09-05T11:02:28.440Z,78.25
2022-09-05T11:02:28.888Z,78.15
2022-09-05T11:02:36.692Z,78.83
2022-09-05T11:03:33.336Z,78.06
2022-09-05T11:04:33.143Z,77.28
2022-09-05T11:05:33.167Z,77.28
2022-09-05T11:06:33.041Z,77.48
2022-09-05T11:07:32.993Z,77.57
2022-09-05T11:08:32.951Z,77.48
2022-09-05T11:09:32.898Z,77.19
2022-09-05T11:10:32.850Z,77.48
2022-09-05T11:11:34.564Z,77.48
2022-09-05T11:12:32.750Z,77.86
2022-09-05T11:13:32.700Z,77.86
2022-09-05T11:14:32.653Z,77.86
2022-09-05T11:15:32.666Z,77.76
2022-09-05T11:16:32.673Z,77.86
2022-09-05T11:17:32.506Z,77.96
2022-09-05T11:18:32.459Z,77.57
2022-09-05T11:19:32.412Z,77.48
2022-09-05T11:20:34.577Z,77.67
2022-09-05T11:21:32.320Z,77.38
2022-09-05T11:22:32.266Z,77.48
2022-09-05T11:23:32.215Z,76.80
2022-09-05T11:24:32.170Z,77.22
2022-09-05T11:25:39.879Z,77.22
2022-09-05T11:26:32.070Z,77.03
2022-09-05T11:27:32.022Z,76.80
2022-09-05T11:28:31.975Z,77.03
2022-09-05T11:29:31.926Z,77.03
2022-09-05T11:30:35.569Z,76.64
2022-09-05T11:31:36.236Z,76.64
2022-09-05T11:39:49.070Z,76.35
2022-09-05T11:39:49.151Z,76.64
2022-09-05T11:39:53.633Z,76.55
2022-09-05T11:40:04.353Z,76.06
2022-09-05T11:40:05.247Z,76.84
2022-09-05T11:40:06.270Z,76.64
2022-09-05T11:40:06.719Z,76.93
2022-09-05T11:40:08.820Z,76.93
2022-09-05T11:40:44.797Z,76.84
2022-09-05T11:41:31.373Z,76.45
2022-09-05T11:42:31.296Z,76.64
2022-09-05T11:43:31.256Z,76.45
2022-09-05T11:44:31.201Z,77.13
2022-09-05T11:45:31.154Z,77.22
2022-09-05T11:46:31.115Z,77.22
2022-09-05T11:47:38.303Z,76.74
2022-09-05T11:48:31.008Z,76.45
2022-09-05T11:49:30.960Z,76.64
2022-09-05T11:50:30.909Z,76.64
2022-09-05T11:51:34.031Z,76.64
2022-09-05T11:52:30.816Z,76.01
2022-09-05T11:53:30.770Z,76.10
2022-09-05T11:54:30.717Z,76.01
2022-09-05T11:55:30.669Z,76.01
2022-09-05T11:56:30.620Z,76.10
2022-09-05T11:57:33.806Z,76.68
2022-09-05T11:58:43.621Z,76.39
2022-09-05T11:59:32.837Z,75.91
2022-09-05T12:00:33.429Z,76.68
2022-09-05T12:01:42.067Z,77.07
2022-09-05T12:02:30.364Z,77.17
2022-09-05T12:03:59.585Z,76.87
2022-09-05T12:04:31.540Z,76.59
2022-09-05T12:05:49.164Z,76.87
2022-09-05T12:06:30.191Z,76.49
2022-09-05T12:07:31.758Z,75.91
2022-09-05T12:08:30.043Z,75.81
2022-09-05T12:09:29.995Z,76.10
2022-09-05T12:10:46.675Z,76.10
2022-09-05T12:11:29.900Z,75.43
2022-09-05T12:12:41.385Z,75.71
2022-09-05T12:13:29.837Z,75.62
2022-09-05T12:14:29.753Z,75.81
2022-09-05T12:15:29.751Z,75.33
2022-09-05T12:16:29.706Z,75.37
2022-09-05T12:17:35.590Z,75.71
2022-09-05T12:18:29.693Z,75.62
2022-09-05T12:19:29.514Z,75.37
2022-09-05T12:20:29.466Z,75.46
2022-09-05T12:21:29.418Z,75.43
2022-09-05T12:22:29.368Z,74.79
2022-09-05T12:23:47.503Z,75.56
2022-09-05T12:24:57.341Z,75.65
2022-09-05T12:27:40.717Z,75.56
2022-09-05T12:27:42.380Z,75.17
2022-09-05T12:27:44.314Z,75.27
2022-09-05T12:29:26.563Z,75.95
2022-09-05T12:29:35.560Z,76.14
2022-09-05T12:32:34.296Z,76.43
2022-09-05T12:35:15.590Z,76.91
2022-09-05T12:36:02.154Z,76.72
2022-09-05T12:36:06.372Z,77.01
2022-09-05T12:36:07.739Z,76.91
2022-09-05T12:40:44.684Z,76.62
2022-09-05T12:40:54.353Z,76.82
2022-09-05T12:40:55.751Z,76.62
2022-09-05T12:41:34.234Z,76.62
2022-09-05T12:41:37.361Z,76.14
2022-09-05T12:41:44.182Z,76.14
2022-09-05T12:42:09.901Z,76.14
2022-09-05T12:42:38.668Z,76.91
2022-09-05T12:44:37.012Z,77.20
2022-09-05T12:44:42.314Z,77.11
2022-09-05T12:45:32.466Z,75.85
2022-09-05T12:46:28.219Z,76.62
2022-09-05T12:47:28.170Z,76.04
2022-09-05T12:48:38.718Z,75.27
2022-09-05T12:49:34.976Z,74.69
2022-09-05T12:50:28.026Z,73.37
2022-09-05T12:51:46.177Z,74.01
2022-09-05T12:52:27.931Z,73.33
2022-09-05T12:53:27.885Z,73.47